sensor_id;sensor_type;location;lat;lon;timestamp;pressure;altitude;pressure_sealevel;temperature;humidity
19594;BME280;9944;48.240;16.478;2023-06-22T00:03:24;100057.97;;;21.74;75.34
19594;BME280;9944;48.240;16.478;2023-06-22T00:07:48;100048.94;;;21.75;75.08
19594;BME280;9944;48.240;16.478;2023-06-22T00:12:13;100033.63;;;21.77;75.06
19594;BME280;9944;48.240;16.478;2023-06-22T00:16:37;100040.81;;;21.76;74.88
19594;BME280;9944;48.240;16.478;2023-06-22T00:21:00;100034.69;;;21.73;74.29
19594;BME280;9944;48.240;16.478;2023-06-22T00:25:24;100048.69;;;21.60;74.28
19594;BME280;9944;48.240;16.478;2023-06-22T00:29:49;100049.78;;;21.56;74.74
19594;BME280;9944;48.240;16.478;2023-06-22T00:34:13;100049.94;;;21.53;74.67
19594;BME280;9944;48.240;16.478;2023-06-22T00:38:36;100030.31;;;21.51;74.50
19594;BME280;9944;48.240;16.478;2023-06-22T00:43:05;100032.22;;;21.49;74.68
19594;BME280;9944;48.240;16.478;2023-06-22T00:47:31;100029.72;;;21.44;74.24
19594;BME280;9944;48.240;16.478;2023-06-22T00:51:56;100023.50;;;21.44;74.61
19594;BME280;9944;48.240;16.478;2023-06-22T00:56:22;100018.25;;;21.41;74.57
19594;BME280;9944;48.240;16.478;2023-06-22T01:00:47;100018.69;;;21.31;74.13
19594;BME280;9944;48.240;16.478;2023-06-22T01:05:13;100025.22;;;21.24;74.50
19594;BME280;9944;48.240;16.478;2023-06-22T01:09:52;100022.53;;;21.24;74.64
19594;BME280;9944;48.240;16.478;2023-06-22T01:14:21;100022.72;;;21.21;74.36
19594;BME280;9944;48.240;16.478;2023-06-22T01:18:54;100011.31;;;21.16;74.52
19594;BME280;9944;48.240;16.478;2023-06-22T01:23:29;100010.63;;;21.11;74.14
19594;BME280;9944;48.240;16.478;2023-06-22T01:28:01;100006.25;;;21.08;74.94
19594;BME280;9944;48.240;16.478;2023-06-22T01:32:30;100009.00;;;21.07;74.89
19594;BME280;9944;48.240;16.478;2023-06-22T01:36:55;100011.88;;;21.02;74.79
19594;BME280;9944;48.240;16.478;2023-06-22T01:41:20;99999.56;;;20.97;74.88
19594;BME280;9944;48.240;16.478;2023-06-22T01:45:44;100007.78;;;20.93;75.00
19594;BME280;9944;48.240;16.478;2023-06-22T01:50:10;100006.16;;;20.89;74.93
19594;BME280;9944;48.240;16.478;2023-06-22T01:54:34;100009.84;;;20.87;75.50
19594;BME280;9944;48.240;16.478;2023-06-22T01:59:04;100005.47;;;20.84;75.72
19594;BME280;9944;48.240;16.478;2023-06-22T02:03:34;99997.63;;;20.80;75.91
19594;BME280;9944;48.240;16.478;2023-06-22T02:08:06;100000.50;;;20.75;75.77
19594;BME280;9944;48.240;16.478;2023-06-22T02:12:31;99997.03;;;20.73;76.40
19594;BME280;9944;48.240;16.478;2023-06-22T02:16:56;99989.03;;;20.71;76.63
19594;BME280;9944;48.240;16.478;2023-06-22T02:21:21;99993.53;;;20.71;76.61
19594;BME280;9944;48.240;16.478;2023-06-22T02:25:46;99996.34;;;20.68;76.63
19594;BME280;9944;48.240;16.478;2023-06-22T02:30:10;99992.91;;;20.64;76.37
19594;BME280;9944;48.240;16.478;2023-06-22T02:34:34;99989.44;;;20.62;76.67
19594;BME280;9944;48.240;16.478;2023-06-22T02:38:59;99991.50;;;20.55;76.58
19594;BME280;9944;48.240;16.478;2023-06-22T02:43:26;99996.19;;;20.50;76.91
19594;BME280;9944;48.240;16.478;2023-06-22T02:47:50;99989.13;;;20.48;76.71
19594;BME280;9944;48.240;16.478;2023-06-22T02:52:13;99987.41;;;20.47;76.85
19594;BME280;9944;48.240;16.478;2023-06-22T02:56:37;99996.56;;;20.41;77.11
19594;BME280;9944;48.240;16.478;2023-06-22T03:01:05;99995.88;;;20.36;77.15
19594;BME280;9944;48.240;16.478;2023-06-22T03:05:31;99995.00;;;20.35;77.02
19594;BME280;9944;48.240;16.478;2023-06-22T03:09:54;99997.63;;;20.37;77.70
19594;BME280;9944;48.240;16.478;2023-06-22T03:14:19;100002.00;;;20.40;77.19
19594;BME280;9944;48.240;16.478;2023-06-22T03:18:45;99994.00;;;20.38;77.11
19594;BME280;9944;48.240;16.478;2023-06-22T03:23:08;99987.84;;;20.36;77.35
19594;BME280;9944;48.240;16.478;2023-06-22T03:27:33;100003.09;;;20.34;77.60
19594;BME280;9944;48.240;16.478;2023-06-22T03:31:56;100011.16;;;20.34;77.83
19594;BME280;9944;48.240;16.478;2023-06-22T03:36:22;100004.91;;;20.33;77.80
19594;BME280;9944;48.240;16.478;2023-06-22T03:40:46;100001.44;;;20.31;77.79
19594;BME280;9944;48.240;16.478;2023-06-22T03:45:10;100008.72;;;20.28;77.84
19594;BME280;9944;48.240;16.478;2023-06-22T03:49:35;99999.84;;;20.26;77.64
19594;BME280;9944;48.240;16.478;2023-06-22T03:54:00;100005.31;;;20.23;78.14
19594;BME280;9944;48.240;16.478;2023-06-22T03:58:24;99993.84;;;20.19;78.32
19594;BME280;9944;48.240;16.478;2023-06-22T04:02:47;100016.28;;;20.16;78.28
19594;BME280;9944;48.240;16.478;2023-06-22T04:07:11;99994.84;;;20.16;78.41
19594;BME280;9944;48.240;16.478;2023-06-22T04:11:36;99992.09;;;20.18;78.67
19594;BME280;9944;48.240;16.478;2023-06-22T04:16:00;99988.38;;;20.22;79.05
19594;BME280;9944;48.240;16.478;2023-06-22T04:20:24;99990.03;;;20.25;78.87
19594;BME280;9944;48.240;16.478;2023-06-22T04:24:51;99992.63;;;20.28;79.19
19594;BME280;9944;48.240;16.478;2023-06-22T04:29:16;99978.09;;;20.33;79.18
19594;BME280;9944;48.240;16.478;2023-06-22T04:33:39;99984.31;;;20.34;79.12
19594;BME280;9944;48.240;16.478;2023-06-22T04:38:03;99986.78;;;20.40;79.10
19594;BME280;9944;48.240;16.478;2023-06-22T04:42:27;99981.28;;;20.43;79.20
19594;BME280;9944;48.240;16.478;2023-06-22T04:46:52;99990.25;;;20.42;79.56
19594;BME280;9944;48.240;16.478;2023-06-22T04:51:22;99994.75;;;20.42;79.91
19594;BME280;9944;48.240;16.478;2023-06-22T04:55:52;100004.47;;;20.44;79.99
19594;BME280;9944;48.240;16.478;2023-06-22T05:00:18;100002.59;;;20.46;79.98
19594;BME280;9944;48.240;16.478;2023-06-22T05:04:46;100006.97;;;20.49;80.06
19594;BME280;9944;48.240;16.478;2023-06-22T05:09:14;100011.06;;;20.58;80.83
19594;BME280;9944;48.240;16.478;2023-06-22T05:13:39;100006.28;;;20.66;80.67
19594;BME280;9944;48.240;16.478;2023-06-22T05:18:03;100015.88;;;20.71;79.90
19594;BME280;9944;48.240;16.478;2023-06-22T05:22:29;100017.69;;;20.71;79.71
19594;BME280;9944;48.240;16.478;2023-06-22T05:26:52;100012.03;;;20.77;79.85
19594;BME280;9944;48.240;16.478;2023-06-22T05:31:16;100011.56;;;20.88;80.40
19594;BME280;9944;48.240;16.478;2023-06-22T05:35:42;100018.09;;;21.03;80.09
19594;BME280;9944;48.240;16.478;2023-06-22T05:40:08;100018.63;;;21.12;79.59
19594;BME280;9944;48.240;16.478;2023-06-22T05:44:32;100001.72;;;21.29;80.06
19594;BME280;9944;48.240;16.478;2023-06-22T05:48:55;100010.72;;;21.49;79.29
19594;BME280;9944;48.240;16.478;2023-06-22T05:53:19;99994.69;;;21.66;78.60
19594;BME280;9944;48.240;16.478;2023-06-22T05:57:44;99995.59;;;21.86;77.75
19594;BME280;9944;48.240;16.478;2023-06-22T06:02:08;99994.63;;;22.06;77.51
19594;BME280;9944;48.240;16.478;2023-06-22T06:06:31;100003.78;;;22.21;76.35
19594;BME280;9944;48.240;16.478;2023-06-22T06:10:57;100019.25;;;22.35;76.56
19594;BME280;9944;48.240;16.478;2023-06-22T06:15:22;100021.19;;;22.50;76.02
19594;BME280;9944;48.240;16.478;2023-06-22T06:19:46;100019.59;;;22.65;75.66
19594;BME280;9944;48.240;16.478;2023-06-22T06:24:09;100016.56;;;22.89;75.83
19594;BME280;9944;48.240;16.478;2023-06-22T06:28:34;100010.09;;;23.10;74.95
19594;BME280;9944;48.240;16.478;2023-06-22T06:32:58;100010.97;;;23.28;74.62
19594;BME280;9944;48.240;16.478;2023-06-22T06:37:22;100018.84;;;23.49;74.14
19594;BME280;9944;48.240;16.478;2023-06-22T06:41:45;100019.34;;;23.73;72.83
19594;BME280;9944;48.240;16.478;2023-06-22T06:46:10;100015.88;;;23.87;72.34
19594;BME280;9944;48.240;16.478;2023-06-22T06:50:35;100010.16;;;24.09;71.88
19594;BME280;9944;48.240;16.478;2023-06-22T06:54:59;100007.13;;;24.31;71.52
19594;BME280;9944;48.240;16.478;2023-06-22T06:59:22;100006.16;;;24.48;70.72
19594;BME280;9944;48.240;16.478;2023-06-22T07:03:46;99996.38;;;24.61;69.61
19594;BME280;9944;48.240;16.478;2023-06-22T07:08:10;99997.41;;;24.75;68.90
19594;BME280;9944;48.240;16.478;2023-06-22T07:12:34;99994.84;;;24.88;68.67
19594;BME280;9944;48.240;16.478;2023-06-22T07:16:58;99992.59;;;25.10;68.30
19594;BME280;9944;48.240;16.478;2023-06-22T07:21:22;99989.22;;;25.21;67.49
19594;BME280;9944;48.240;16.478;2023-06-22T07:25:46;99989.25;;;25.35;67.32
19594;BME280;9944;48.240;16.478;2023-06-22T07:30:12;99981.84;;;25.53;67.18
19594;BME280;9944;48.240;16.478;2023-06-22T07:34:35;99981.81;;;25.68;66.74
19594;BME280;9944;48.240;16.478;2023-06-22T07:38:59;99983.44;;;25.85;65.37
19594;BME280;9944;48.240;16.478;2023-06-22T07:43:24;99985.84;;;25.89;64.24
19594;BME280;9944;48.240;16.478;2023-06-22T07:47:48;99987.88;;;26.00;64.52
19594;BME280;9944;48.240;16.478;2023-06-22T07:52:11;99984.06;;;26.17;63.58
19594;BME280;9944;48.240;16.478;2023-06-22T07:56:36;99971.38;;;26.32;62.68
19594;BME280;9944;48.240;16.478;2023-06-22T08:01:01;99981.38;;;26.44;62.02
19594;BME280;9944;48.240;16.478;2023-06-22T08:05:25;99977.16;;;26.53;61.60
19594;BME280;9944;48.240;16.478;2023-06-22T08:09:49;99980.28;;;26.61;61.16
19594;BME280;9944;48.240;16.478;2023-06-22T08:14:13;99974.13;;;26.72;60.93
19594;BME280;9944;48.240;16.478;2023-06-22T08:18:39;99978.88;;;26.81;60.74
19594;BME280;9944;48.240;16.478;2023-06-22T08:23:03;99983.25;;;26.97;60.52
19594;BME280;9944;48.240;16.478;2023-06-22T08:27:28;99981.31;;;27.11;59.36
19594;BME280;9944;48.240;16.478;2023-06-22T08:31:53;99984.16;;;27.23;59.18
19594;BME280;9944;48.240;16.478;2023-06-22T08:36:18;99975.06;;;27.37;58.40
19594;BME280;9944;48.240;16.478;2023-06-22T08:40:42;99976.78;;;27.51;58.64
19594;BME280;9944;48.240;16.478;2023-06-22T08:45:06;99974.72;;;27.67;57.31
19594;BME280;9944;48.240;16.478;2023-06-22T08:49:30;99972.41;;;27.74;56.93
19594;BME280;9944;48.240;16.478;2023-06-22T08:53:55;99975.78;;;27.90;56.01
19594;BME280;9944;48.240;16.478;2023-06-22T08:58:19;99971.41;;;28.00;56.03
19594;BME280;9944;48.240;16.478;2023-06-22T09:02:43;99954.72;;;28.18;55.81
19594;BME280;9944;48.240;16.478;2023-06-22T09:07:07;99955.53;;;28.31;54.79
19594;BME280;9944;48.240;16.478;2023-06-22T09:11:32;99951.81;;;28.45;54.54
19594;BME280;9944;48.240;16.478;2023-06-22T09:15:56;99951.72;;;28.58;53.87
19594;BME280;9944;48.240;16.478;2023-06-22T09:20:20;99949.03;;;28.69;53.66
19594;BME280;9944;48.240;16.478;2023-06-22T09:24:44;99947.94;;;28.83;52.58
19594;BME280;9944;48.240;16.478;2023-06-22T09:29:09;99946.91;;;28.97;52.53
19594;BME280;9944;48.240;16.478;2023-06-22T09:33:32;99947.09;;;29.18;52.17
19594;BME280;9944;48.240;16.478;2023-06-22T09:37:56;99947.09;;;29.29;52.02
19594;BME280;9944;48.240;16.478;2023-06-22T09:42:20;99927.16;;;29.40;50.93
19594;BME280;9944;48.240;16.478;2023-06-22T09:46:44;99930.16;;;29.48;50.03
19594;BME280;9944;48.240;16.478;2023-06-22T09:51:09;99929.69;;;29.55;49.69
19594;BME280;9944;48.240;16.478;2023-06-22T09:55:32;99928.09;;;29.63;49.89
19594;BME280;9944;48.240;16.478;2023-06-22T09:59:56;99919.41;;;29.69;48.38
19594;BME280;9944;48.240;16.478;2023-06-22T10:04:20;99922.72;;;29.73;49.03
19594;BME280;9944;48.240;16.478;2023-06-22T10:08:45;99911.59;;;29.87;48.98
19594;BME280;9944;48.240;16.478;2023-06-22T10:13:10;99914.00;;;30.02;48.08
19594;BME280;9944;48.240;16.478;2023-06-22T10:17:34;99905.94;;;30.12;48.41
19594;BME280;9944;48.240;16.478;2023-06-22T10:21:59;99924.38;;;30.19;47.36
19594;BME280;9944;48.240;16.478;2023-06-22T10:26:23;99915.47;;;30.17;47.14
19594;BME280;9944;48.240;16.478;2023-06-22T10:30:46;99908.03;;;30.19;46.79
19594;BME280;9944;48.240;16.478;2023-06-22T10:35:10;99907.97;;;30.31;46.78
19594;BME280;9944;48.240;16.478;2023-06-22T10:39:37;99903.91;;;30.36;46.28
19594;BME280;9944;48.240;16.478;2023-06-22T10:44:01;99903.34;;;30.42;45.80
19594;BME280;9944;48.240;16.478;2023-06-22T10:48:24;99895.25;;;30.52;45.50
19594;BME280;9944;48.240;16.478;2023-06-22T10:52:48;99894.25;;;30.53;44.72
19594;BME280;9944;48.240;16.478;2023-06-22T10:57:13;99891.00;;;30.59;44.91
19594;BME280;9944;48.240;16.478;2023-06-22T11:01:37;99879.19;;;30.70;44.94
19594;BME280;9944;48.240;16.478;2023-06-22T11:06:01;99872.97;;;30.79;44.94
19594;BME280;9944;48.240;16.478;2023-06-22T11:10:25;99878.31;;;30.91;44.34
19594;BME280;9944;48.240;16.478;2023-06-22T11:14:50;99863.19;;;31.08;44.48
19594;BME280;9944;48.240;16.478;2023-06-22T11:19:14;99858.19;;;31.13;43.93
19594;BME280;9944;48.240;16.478;2023-06-22T11:23:38;99840.59;;;31.17;44.16
19594;BME280;9944;48.240;16.478;2023-06-22T11:28:02;99846.34;;;31.24;43.63
19594;BME280;9944;48.240;16.478;2023-06-22T11:32:27;99845.50;;;31.23;43.57
19594;BME280;9944;48.240;16.478;2023-06-22T11:36:51;99841.53;;;31.37;43.60
19594;BME280;9944;48.240;16.478;2023-06-22T11:41:14;99831.34;;;31.49;42.87
19594;BME280;9944;48.240;16.478;2023-06-22T11:45:38;99830.78;;;31.55;43.09
19594;BME280;9944;48.240;16.478;2023-06-22T11:50:03;99830.81;;;31.65;41.58
19594;BME280;9944;48.240;16.478;2023-06-22T11:54:28;99835.38;;;31.64;41.99
19594;BME280;9944;48.240;16.478;2023-06-22T11:58:51;99832.53;;;31.66;42.89
19594;BME280;9944;48.240;16.478;2023-06-22T12:03:16;99832.31;;;31.79;43.25
19594;BME280;9944;48.240;16.478;2023-06-22T12:07:41;99822.69;;;31.94;42.55
19594;BME280;9944;48.240;16.478;2023-06-22T12:12:05;99821.53;;;32.06;42.35
19594;BME280;9944;48.240;16.478;2023-06-22T12:16:29;99826.25;;;32.04;42.07
19594;BME280;9944;48.240;16.478;2023-06-22T12:20:53;99829.16;;;32.03;42.54
19594;BME280;9944;48.240;16.478;2023-06-22T12:25:18;99813.59;;;32.13;42.67
19594;BME280;9944;48.240;16.478;2023-06-22T12:29:42;99818.22;;;32.12;41.76
19594;BME280;9944;48.240;16.478;2023-06-22T12:34:05;99806.13;;;32.05;42.20
19594;BME280;9944;48.240;16.478;2023-06-22T12:38:29;99797.09;;;32.05;41.96
19594;BME280;9944;48.240;16.478;2023-06-22T12:42:54;99803.97;;;31.99;41.62
19594;BME280;9944;48.240;16.478;2023-06-22T12:47:18;99788.88;;;32.14;41.69
19594;BME280;9944;48.240;16.478;2023-06-22T12:51:43;99788.91;;;32.24;42.44
19594;BME280;9944;48.240;16.478;2023-06-22T12:56:07;99780.84;;;32.23;41.90
19594;BME280;9944;48.240;16.478;2023-06-22T13:00:32;99777.25;;;32.22;42.27
19594;BME280;9944;48.240;16.478;2023-06-22T13:04:55;99775.09;;;32.26;41.87
19594;BME280;9944;48.240;16.478;2023-06-22T13:09:19;99774.91;;;32.37;43.11
19594;BME280;9944;48.240;16.478;2023-06-22T13:13:44;99758.50;;;32.47;42.21
19594;BME280;9944;48.240;16.478;2023-06-22T13:18:09;99771.34;;;32.37;41.73
19594;BME280;9944;48.240;16.478;2023-06-22T13:22:34;99748.63;;;32.17;41.97
19594;BME280;9944;48.240;16.478;2023-06-22T13:27:03;99743.03;;;32.08;41.95
19594;BME280;9944;48.240;16.478;2023-06-22T13:31:26;99746.47;;;32.01;41.99
19594;BME280;9944;48.240;16.478;2023-06-22T13:35:51;99735.41;;;32.02;42.66
19594;BME280;9944;48.240;16.478;2023-06-22T13:40:15;99725.06;;;32.06;41.84
19594;BME280;9944;48.240;16.478;2023-06-22T13:44:38;99725.94;;;32.06;42.46
19594;BME280;9944;48.240;16.478;2023-06-22T13:49:02;99723.19;;;32.06;42.63
19594;BME280;9944;48.240;16.478;2023-06-22T13:53:26;99723.34;;;32.05;42.97
19594;BME280;9944;48.240;16.478;2023-06-22T13:57:50;99722.78;;;32.01;42.84
19594;BME280;9944;48.240;16.478;2023-06-22T14:02:14;99714.44;;;31.93;42.02
19594;BME280;9944;48.240;16.478;2023-06-22T14:06:38;99707.16;;;31.84;42.50
19594;BME280;9944;48.240;16.478;2023-06-22T14:11:03;99710.44;;;31.77;43.02
19594;BME280;9944;48.240;16.478;2023-06-22T14:15:27;99695.47;;;31.82;43.15
19594;BME280;9944;48.240;16.478;2023-06-22T14:19:50;99683.56;;;31.83;43.75
19594;BME280;9944;48.240;16.478;2023-06-22T14:24:14;99688.16;;;31.82;43.35
19594;BME280;9944;48.240;16.478;2023-06-22T14:28:39;99686.28;;;31.83;43.05
19594;BME280;9944;48.240;16.478;2023-06-22T14:33:03;99679.53;;;31.87;43.73
19594;BME280;9944;48.240;16.478;2023-06-22T14:37:26;99680.69;;;31.84;44.00
19594;BME280;9944;48.240;16.478;2023-06-22T14:41:50;99669.06;;;31.72;43.19
19594;BME280;9944;48.240;16.478;2023-06-22T14:46:17;99666.75;;;31.58;43.09
19594;BME280;9944;48.240;16.478;2023-06-22T14:50:41;99657.69;;;31.57;43.91
19594;BME280;9944;48.240;16.478;2023-06-22T14:55:05;99642.47;;;31.55;44.17
19594;BME280;9944;48.240;16.478;2023-06-22T14:59:29;99642.47;;;31.55;44.07
19594;BME280;9944;48.240;16.478;2023-06-22T15:03:54;99635.28;;;31.54;44.59
19594;BME280;9944;48.240;16.478;2023-06-22T15:08:18;99639.47;;;31.48;43.93
19594;BME280;9944;48.240;16.478;2023-06-22T15:12:41;99639.16;;;31.42;44.77
19594;BME280;9944;48.240;16.478;2023-06-22T15:17:06;99628.56;;;31.38;44.95
19594;BME280;9944;48.240;16.478;2023-06-22T15:21:32;99638.31;;;31.31;44.27
19594;BME280;9944;48.240;16.478;2023-06-22T15:25:56;99642.06;;;31.30;45.01
19594;BME280;9944;48.240;16.478;2023-06-22T15:30:20;99638.03;;;31.34;44.78
19594;BME280;9944;48.240;16.478;2023-06-22T15:34:43;99629.69;;;31.36;44.27
19594;BME280;9944;48.240;16.478;2023-06-22T15:39:08;99626.56;;;31.40;45.42
19594;BME280;9944;48.240;16.478;2023-06-22T15:43:32;99627.53;;;31.39;45.64
19594;BME280;9944;48.240;16.478;2023-06-22T15:47:55;99622.22;;;31.38;45.35
19594;BME280;9944;48.240;16.478;2023-06-22T15:52:19;99620.81;;;31.34;45.41
19594;BME280;9944;48.240;16.478;2023-06-22T15:56:44;99614.63;;;31.32;45.36
19594;BME280;9944;48.240;16.478;2023-06-22T16:01:07;99604.16;;;31.27;46.15
19594;BME280;9944;48.240;16.478;2023-06-22T16:05:32;99603.00;;;31.20;46.37
19594;BME280;9944;48.240;16.478;2023-06-22T16:09:55;99603.56;;;31.14;46.66
19594;BME280;9944;48.240;16.478;2023-06-22T16:14:20;99598.38;;;31.11;47.21
19594;BME280;9944;48.240;16.478;2023-06-22T16:18:44;99602.97;;;31.10;47.38
19594;BME280;9944;48.240;16.478;2023-06-22T16:23:09;99588.88;;;31.05;46.62
19594;BME280;9944;48.240;16.478;2023-06-22T16:27:33;99590.75;;;31.05;47.64
19594;BME280;9944;48.240;16.478;2023-06-22T16:31:58;99590.06;;;31.02;46.88
19594;BME280;9944;48.240;16.478;2023-06-22T16:36:22;99584.31;;;30.96;47.60
19594;BME280;9944;48.240;16.478;2023-06-22T16:40:46;99582.56;;;30.95;47.38
19594;BME280;9944;48.240;16.478;2023-06-22T16:45:12;99572.53;;;30.95;47.57
19594;BME280;9944;48.240;16.478;2023-06-22T16:49:37;99571.66;;;30.95;48.62
19594;BME280;9944;48.240;16.478;2023-06-22T16:54:01;99564.06;;;30.89;49.19
19594;BME280;9944;48.240;16.478;2023-06-22T16:58:25;99557.88;;;30.77;48.29
19594;BME280;9944;48.240;16.478;2023-06-22T17:02:50;99550.72;;;30.66;48.11
19594;BME280;9944;48.240;16.478;2023-06-22T17:07:18;99535.91;;;30.59;48.72
19594;BME280;9944;48.240;16.478;2023-06-22T17:11:42;99534.56;;;30.53;49.16
19594;BME280;9944;48.240;16.478;2023-06-22T17:16:09;99532.44;;;30.47;48.98
19594;BME280;9944;48.240;16.478;2023-06-22T17:20:32;99530.25;;;30.41;49.27
19594;BME280;9944;48.240;16.478;2023-06-22T17:24:58;99522.78;;;30.33;49.41
19594;BME280;9944;48.240;16.478;2023-06-22T17:29:28;99526.38;;;30.24;49.93
19594;BME280;9944;48.240;16.478;2023-06-22T17:33:53;99511.72;;;30.15;49.99
19594;BME280;9944;48.240;16.478;2023-06-22T17:38:20;99518.09;;;30.04;50.50
19594;BME280;9944;48.240;16.478;2023-06-22T17:42:45;99498.56;;;29.89;50.88
19594;BME280;9944;48.240;16.478;2023-06-22T17:47:09;99506.53;;;29.81;51.38
19594;BME280;9944;48.240;16.478;2023-06-22T17:51:32;99508.22;;;29.72;51.99
19594;BME280;9944;48.240;16.478;2023-06-22T17:55:58;99497.28;;;29.63;52.30
19594;BME280;9944;48.240;16.478;2023-06-22T18:00:25;99482.75;;;29.52;52.32
19594;BME280;9944;48.240;16.478;2023-06-22T18:04:49;99482.56;;;29.44;52.74
19594;BME280;9944;48.240;16.478;2023-06-22T18:09:15;99478.34;;;29.30;53.05
19594;BME280;9944;48.240;16.478;2023-06-22T18:13:40;99488.44;;;29.19;53.21
19594;BME280;9944;48.240;16.478;2023-06-22T18:18:07;99488.63;;;29.06;53.81
19594;BME280;9944;48.240;16.478;2023-06-22T18:22:32;99492.00;;;28.98;53.85
19594;BME280;9944;48.240;16.478;2023-06-22T18:26:56;99491.03;;;28.88;54.21
19594;BME280;9944;48.240;16.478;2023-06-22T18:31:21;99512.53;;;28.79;54.65
19594;BME280;9944;48.240;16.478;2023-06-22T18:35:48;99519.75;;;28.69;54.88
19594;BME280;9944;48.240;16.478;2023-06-22T18:40:14;99533.88;;;28.63;54.97
19594;BME280;9944;48.240;16.478;2023-06-22T18:44:41;99530.53;;;28.59;55.52
19594;BME280;9944;48.240;16.478;2023-06-22T18:49:11;99506.47;;;28.55;55.55
19594;BME280;9944;48.240;16.478;2023-06-22T18:53:36;99513.53;;;28.46;55.63
19594;BME280;9944;48.240;16.478;2023-06-22T18:58:14;99513.19;;;28.39;55.95
19594;BME280;9944;48.240;16.478;2023-06-22T19:02:42;99510.94;;;28.33;56.15
19594;BME280;9944;48.240;16.478;2023-06-22T19:07:09;99512.19;;;28.29;56.09
19594;BME280;9944;48.240;16.478;2023-06-22T19:11:35;99506.13;;;28.26;56.51
19594;BME280;9944;48.240;16.478;2023-06-22T19:16:00;99505.78;;;28.19;56.58
19594;BME280;9944;48.240;16.478;2023-06-22T19:20:31;99503.72;;;28.11;56.73
19594;BME280;9944;48.240;16.478;2023-06-22T19:24:59;99510.13;;;27.99;57.25
19594;BME280;9944;48.240;16.478;2023-06-22T19:29:24;99513.50;;;27.91;57.58
19594;BME280;9944;48.240;16.478;2023-06-22T19:33:52;99511.63;;;27.80;57.75
19594;BME280;9944;48.240;16.478;2023-06-22T19:38:16;99509.75;;;27.70;57.93
19594;BME280;9944;48.240;16.478;2023-06-22T19:42:41;99499.63;;;27.60;58.04
19594;BME280;9944;48.240;16.478;2023-06-22T19:47:07;99493.22;;;27.50;58.10
19594;BME280;9944;48.240;16.478;2023-06-22T19:51:32;99497.41;;;27.43;58.09
19594;BME280;9944;48.240;16.478;2023-06-22T19:55:56;99507.00;;;27.36;58.27
19594;BME280;9944;48.240;16.478;2023-06-22T20:00:21;99506.34;;;27.32;58.28
19594;BME280;9944;48.240;16.478;2023-06-22T20:04:46;99515.34;;;27.21;58.53
19594;BME280;9944;48.240;16.478;2023-06-22T20:09:13;99520.13;;;27.18;58.82
19594;BME280;9944;48.240;16.478;2023-06-22T20:13:45;99513.31;;;27.12;59.01
19594;BME280;9944;48.240;16.478;2023-06-22T20:18:10;99509.97;;;27.08;59.10
19594;BME280;9944;48.240;16.478;2023-06-22T20:22:42;99499.50;;;27.04;59.19
19594;BME280;9944;48.240;16.478;2023-06-22T20:27:10;99495.06;;;27.03;59.33
19594;BME280;9944;48.240;16.478;2023-06-22T20:31:34;99487.53;;;26.95;59.18
19594;BME280;9944;48.240;16.478;2023-06-22T20:36:00;99480.63;;;26.91;59.51
19594;BME280;9944;48.240;16.478;2023-06-22T20:40:25;99467.53;;;26.85;59.68
19594;BME280;9944;48.240;16.478;2023-06-22T20:44:50;99460.53;;;26.82;59.82
19594;BME280;9944;48.240;16.478;2023-06-22T20:49:13;99437.34;;;26.78;60.08
19594;BME280;9944;48.240;16.478;2023-06-22T20:53:39;99412.94;;;26.67;60.25
19594;BME280;9944;48.240;16.478;2023-06-22T20:58:04;99441.50;;;26.60;60.61
19594;BME280;9944;48.240;16.478;2023-06-22T21:02:28;99473.25;;;26.58;60.75
19594;BME280;9944;48.240;16.478;2023-06-22T21:06:52;99435.34;;;26.58;61.36
19594;BME280;9944;48.240;16.478;2023-06-22T21:11:16;99415.59;;;26.55;61.49
19594;BME280;9944;48.240;16.478;2023-06-22T21:15:40;99386.28;;;26.49;61.49
19594;BME280;9944;48.240;16.478;2023-06-22T21:20:06;99363.25;;;26.44;62.14
19594;BME280;9944;48.240;16.478;2023-06-22T21:24:29;99352.03;;;26.37;62.35
19594;BME280;9944;48.240;16.478;2023-06-22T21:28:54;99332.69;;;26.30;62.62
19594;BME280;9944;48.240;16.478;2023-06-22T21:33:19;99299.94;;;26.22;63.26
19594;BME280;9944;48.240;16.478;2023-06-22T21:37:42;99278.53;;;26.19;63.94
19594;BME280;9944;48.240;16.478;2023-06-22T21:42:08;99255.50;;;26.13;64.41
19594;BME280;9944;48.240;16.478;2023-06-22T21:46:33;99244.06;;;26.10;65.14
19594;BME280;9944;48.240;16.478;2023-06-22T21:50:58;99229.53;;;25.99;65.32
19594;BME280;9944;48.240;16.478;2023-06-22T21:55:21;99188.78;;;25.90;65.44
19594;BME280;9944;48.240;16.478;2023-06-22T21:59:45;99208.19;;;25.84;66.25
19594;BME280;9944;48.240;16.478;2023-06-22T22:04:08;99235.81;;;25.76;66.36
19594;BME280;9944;48.240;16.478;2023-06-22T22:08:33;99244.91;;;25.75;66.78
19594;BME280;9944;48.240;16.478;2023-06-22T22:12:57;99212.34;;;25.76;67.64
19594;BME280;9944;48.240;16.478;2023-06-22T22:17:20;99199.78;;;25.75;67.92
19594;BME280;9944;48.240;16.478;2023-06-22T22:21:44;99209.97;;;25.72;68.57
19594;BME280;9944;48.240;16.478;2023-06-22T22:26:09;99225.34;;;25.71;68.98
19594;BME280;9944;48.240;16.478;2023-06-22T22:30:33;99233.44;;;25.71;69.75
19594;BME280;9944;48.240;16.478;2023-06-22T22:34:57;99244.16;;;25.73;70.40
19594;BME280;9944;48.240;16.478;2023-06-22T22:39:30;99244.78;;;25.76;70.41
19594;BME280;9944;48.240;16.478;2023-06-22T22:43:57;99234.59;;;25.80;70.37
19594;BME280;9944;48.240;16.478;2023-06-22T22:48:21;99241.59;;;25.83;70.43
19594;BME280;9944;48.240;16.478;2023-06-22T22:52:44;99236.06;;;25.84;70.13
19594;BME280;9944;48.240;16.478;2023-06-22T22:57:08;99235.00;;;25.87;70.31
19594;BME280;9944;48.240;16.478;2023-06-22T23:01:34;99222.00;;;25.92;69.92
19594;BME280;9944;48.240;16.478;2023-06-22T23:05:58;99216.50;;;25.93;70.06
19594;BME280;9944;48.240;16.478;2023-06-22T23:10:22;99219.06;;;25.95;70.33
19594;BME280;9944;48.240;16.478;2023-06-22T23:14:46;99202.09;;;25.93;70.16
19594;BME280;9944;48.240;16.478;2023-06-22T23:19:11;99175.03;;;25.93;70.16